METAR Reports From Nearby Airports

 

KLUD - Decatur, Texas, USA
Distance from Wildwood: ESE 5mi, 8km
Updated: Apr 04, 2020 7:15am
Overcast
Overcast
 Wind from NNW
Wind: NNW 8 mph , 13 km/h
Temperature: 39°F , 4°C
Wind Chill: 33°F , 1°C
Dew Point: 36°F , 2°C
Humidity: 87%
Barometer: 30.09 inHg , 1019 hPa
Clouds: Overcast
Visibility: 10 miles , 16 km
Cloud details: Mostly Cloudy 1100 ft
Overcast 1600 ft
2020/04/04 12:15 KLUD 041215Z AUTO 33007KT 10SM BKN011 OVC016 04/02 A3009 RMK AO2 T00380019
KXBP - Bridgeport, Texas, USA
Distance from Wildwood: WSW 11mi, 18km
Updated: Apr 04, 2020 7:15am
Overcast
Overcast
 Wind from N
Wind: N 7 mph , 11 km/h
Temperature: 41°F , 5°C
Wind Chill: 36°F , 2°C
Dew Point: 37°F , 3°C
Humidity: 87%
Barometer: 30.13 inHg , 1020.3 hPa
Clouds: Overcast
Visibility: 10 miles , 16 km
Cloud details: Overcast 1200 ft
2020/04/04 12:15 KXBP 041215Z AUTO 36006KT 10SM OVC012 05/03 A3013 RMK AO2 T00450025
 
K0F2 - Bowie, Texas, USA
Distance from Wildwood: NNW 24mi, 39km
Updated: Apr 04, 2020 7:15am
Overcast
Overcast
 Wind from N
Wind: N 14 mph , 22 km/h
Temperature: 41°F , 5°C
Wind Chill: 33°F , 1°C
Dew Point: 37°F , 3°C
Humidity: 87%
Barometer: 30.10 inHg , 1019.3 hPa
Clouds: Overcast
Visibility: 10 miles , 16 km
Cloud details: Overcast 1100 ft
2020/04/04 12:15 K0F2 041215Z AUTO 35012KT 10SM OVC011 05/03 A3010 RMK AO2 T00520032
KDTO - Denton, Texas, USA
Distance from Wildwood: E 27mi, 44km
Updated: Apr 04, 2020 7:20am
Overcast
Overcast
 Wind from N
Wind: N 13 mph , 20 km/h
Temperature: 41°F , 5°C
Wind Chill: 34°F , 1°C
Dew Point: 36°F , 2°C
Humidity: 81%
Barometer: 30.10 inHg , 1019.3 hPa
Clouds: Overcast
Visibility: 10 miles , 16 km
Cloud details: Overcast 1600 ft
2020/04/04 12:20 KDTO 041220Z 35011KT 10SM OVC016 05/02 A3010 RMK AO2 T00500022
 
KAFW - Ft Worth/Allianc, Texas, USA
Distance from Wildwood: SE 29mi, 46km
Updated: Apr 04, 2020 6:53am
Overcast
Overcast
 Wind from NNW
Wind: NNW 13 mph , 20 km/h
Temperature: 41°F , 5°C
Wind Chill: 34°F , 1°C
Dew Point: 36°F , 2°C
Humidity: 81%
Barometer: 30.08 inHg , 1018.6 hPa
Clouds: Overcast
Visibility: 10 miles , 16 km
Cloud details: Overcast 1500 ft
2020/04/04 11:53 KAFW 041153Z 34011KT 10SM OVC015 05/02 A3008 RMK AO2 SLP192 70007 T00500022 10050 20044 52006
KFTW - Fort Worth, Texas, USA
Distance from Wildwood: SSE 34mi, 55km
Updated: Apr 04, 2020 6:53am
Overcast
Overcast
 Wind from NW
Wind: NW 12 mph , 19 km/h
Temperature: 39°F , 4°C
Wind Chill: 32°F , 0°C
Dew Point: 37°F , 3°C
Humidity: 93%
Barometer: 30.08 inHg , 1018.6 hPa
Clouds: Overcast
Visibility: 10 miles , 16 km
Cloud details: Overcast 1300 ft
2020/04/04 11:53 KFTW 041153Z 32010KT 10SM OVC013 04/03 A3008 RMK AO2 SLP189 70002 T00440028 10044 20039 53002
 
KNFW - Fort Worth Nas, Texas, USA
Distance from Wildwood: SSE 36mi, 58km
Updated: Apr 04, 2020 6:52am
Overcast
Overcast
 Wind from N
Wind: N 14 mph , 22 km/h
Temperature: 43°F , 6°C
Wind Chill: 36°F , 2°C
Dew Point: 37°F , 3°C
Humidity: 81%
Barometer: 30.09 inHg , 1019 hPa
Clouds: Overcast
Visibility: 10 miles , 16 km
Cloud details: Mostly Cloudy 1600 ft
Overcast 2100 ft
2020/04/04 11:52 KNFW 041152Z 35012KT 10SM BKN016 OVC021 06/03 A3009 RMK AO2 CIG 010 N SLP173 T00610028 10061 20056 53001 VISNO N $
KGLE - Gainesville, Texas, USA
Distance from Wildwood: NE 38mi, 61km
Updated: Apr 04, 2020 7:15am
Overcast
Overcast
 Wind from N
Wind: N 14 mph , 22 km/h
Temperature: 39°F , 4°C
Wind Chill: 31°F , -1°C
Dew Point: 36°F , 2°C
Humidity: 87%
Barometer: 30.11 inHg , 1019.6 hPa
Clouds: Overcast
Visibility: 10 miles , 16 km
Cloud details: Overcast 1000 ft
2020/04/04 12:15 KGLE 041215Z AUTO 35012KT 10SM OVC010 04/02 A3011 RMK AO2 T00350020
 
KMWL - Mineral Wells, Texas, USA
Distance from Wildwood: SW 41mi, 65km
Updated: Apr 04, 2020 6:53am
Overcast
Overcast
 Wind from NNW
Wind: NNW 10 mph , 17 km/h
Temperature: 39°F , 4°C
Wind Chill: 32°F , 0°C
Dew Point: 36°F , 2°C
Humidity: 87%
Barometer: 30.08 inHg , 1018.6 hPa
Clouds: Overcast
Visibility: 10 miles , 16 km
Cloud details: Overcast 1200 ft
2020/04/04 11:53 KMWL 041153Z AUTO 34009KT 10SM OVC012 04/02 A3008 RMK AO2 SLP186 70001 T00440022 10044 20039 53000
KDFW - Dallas/Ft Worth, Texas, USA
Distance from Wildwood: ESE 45mi, 73km
Updated: Apr 04, 2020 6:53am
Overcast
Overcast
 Wind from NNW
Wind: NNW 12 mph , 19 km/h
Temperature: 41°F , 5°C
Wind Chill: 34°F , 1°C
Dew Point: 37°F , 3°C
Humidity: 87%
Barometer: 30.05 inHg , 1017.6 hPa
Clouds: Overcast
Visibility: 10 miles , 16 km
Cloud details: Overcast 1000 ft
2020/04/04 11:53 KDFW 041153Z 34010KT 10SM OVC010 05/03 A3005 RMK AO2 SLP178 60000 T00500033 10050 20044 51002